sensor_id;sensor_type;location;lat;lon;timestamp;P1;durP1;ratioP1;P2;durP2;ratioP2
65835;SDS011;52595;51.608;7.216;2022-07-23T00:00:32;17.98;;;7.90;;
65835;SDS011;52595;51.608;7.216;2022-07-23T00:02:58;14.25;;;8.05;;
65835;SDS011;52595;51.608;7.216;2022-07-23T00:05:23;12.68;;;8.15;;
65835;SDS011;52595;51.608;7.216;2022-07-23T00:07:49;12.52;;;8.02;;
65835;SDS011;52595;51.608;7.216;2022-07-23T00:10:14;19.02;;;8.50;;
65835;SDS011;52595;51.608;7.216;2022-07-23T00:12:40;13.13;;;8.55;;
65835;SDS011;52595;51.608;7.216;2022-07-23T00:15:06;13.30;;;8.38;;
65835;SDS011;52595;51.608;7.216;2022-07-23T00:17:32;20.27;;;8.80;;
65835;SDS011;52595;51.608;7.216;2022-07-23T00:19:58;14.52;;;8.52;;
65835;SDS011;52595;51.608;7.216;2022-07-23T00:22:23;16.30;;;8.43;;
65835;SDS011;52595;51.608;7.216;2022-07-23T00:24:49;15.55;;;8.55;;
65835;SDS011;52595;51.608;7.216;2022-07-23T00:27:14;12.57;;;8.32;;
65835;SDS011;52595;51.608;7.216;2022-07-23T00:29:40;17.05;;;8.50;;
65835;SDS011;52595;51.608;7.216;2022-07-23T00:32:05;16.08;;;8.65;;
65835;SDS011;52595;51.608;7.216;2022-07-23T00:34:31;16.42;;;9.13;;
65835;SDS011;52595;51.608;7.216;2022-07-23T00:36:56;17.65;;;8.57;;
65835;SDS011;52595;51.608;7.216;2022-07-23T00:39:22;14.18;;;8.50;;
65835;SDS011;52595;51.608;7.216;2022-07-23T00:41:48;15.45;;;8.90;;
65835;SDS011;52595;51.608;7.216;2022-07-23T00:44:18;17.27;;;9.05;;
65835;SDS011;52595;51.608;7.216;2022-07-23T00:46:52;14.63;;;8.82;;
65835;SDS011;52595;51.608;7.216;2022-07-23T00:49:23;20.90;;;9.25;;
65835;SDS011;52595;51.608;7.216;2022-07-23T00:51:51;15.68;;;9.20;;
65835;SDS011;52595;51.608;7.216;2022-07-23T00:54:17;15.05;;;9.25;;
65835;SDS011;52595;51.608;7.216;2022-07-23T00:56:44;14.95;;;8.85;;
65835;SDS011;52595;51.608;7.216;2022-07-23T00:59:11;14.50;;;9.20;;
65835;SDS011;52595;51.608;7.216;2022-07-23T01:01:37;20.08;;;9.32;;
65835;SDS011;52595;51.608;7.216;2022-07-23T01:04:03;16.00;;;9.57;;
65835;SDS011;52595;51.608;7.216;2022-07-23T01:06:28;16.92;;;9.98;;
65835;SDS011;52595;51.608;7.216;2022-07-23T01:08:54;18.00;;;9.48;;
65835;SDS011;52595;51.608;7.216;2022-07-23T01:11:20;18.98;;;10.52;;
65835;SDS011;52595;51.608;7.216;2022-07-23T01:13:48;20.00;;;10.02;;
65835;SDS011;52595;51.608;7.216;2022-07-23T01:16:13;19.02;;;9.40;;
65835;SDS011;52595;51.608;7.216;2022-07-23T01:18:38;17.50;;;9.98;;
65835;SDS011;52595;51.608;7.216;2022-07-23T01:21:04;16.55;;;9.73;;
65835;SDS011;52595;51.608;7.216;2022-07-23T01:23:30;18.38;;;9.75;;
65835;SDS011;52595;51.608;7.216;2022-07-23T01:25:55;17.55;;;9.77;;
65835;SDS011;52595;51.608;7.216;2022-07-23T01:28:21;17.00;;;9.68;;
65835;SDS011;52595;51.608;7.216;2022-07-23T01:30:47;18.33;;;11.38;;
65835;SDS011;52595;51.608;7.216;2022-07-23T01:33:13;26.13;;;13.45;;
65835;SDS011;52595;51.608;7.216;2022-07-23T01:35:39;15.82;;;9.98;;
65835;SDS011;52595;51.608;7.216;2022-07-23T01:38:04;22.15;;;10.88;;
65835;SDS011;52595;51.608;7.216;2022-07-23T01:40:29;18.40;;;10.30;;
65835;SDS011;52595;51.608;7.216;2022-07-23T01:42:55;18.60;;;10.98;;
65835;SDS011;52595;51.608;7.216;2022-07-23T01:45:20;17.55;;;10.80;;
65835;SDS011;52595;51.608;7.216;2022-07-23T01:47:46;15.73;;;10.32;;
65835;SDS011;52595;51.608;7.216;2022-07-23T01:50:12;17.55;;;10.52;;
65835;SDS011;52595;51.608;7.216;2022-07-23T01:52:37;19.35;;;10.30;;
65835;SDS011;52595;51.608;7.216;2022-07-23T01:55:03;20.63;;;10.95;;
65835;SDS011;52595;51.608;7.216;2022-07-23T01:57:29;17.48;;;10.70;;
65835;SDS011;52595;51.608;7.216;2022-07-23T01:59:54;21.10;;;10.45;;
65835;SDS011;52595;51.608;7.216;2022-07-23T02:02:19;19.45;;;10.45;;
65835;SDS011;52595;51.608;7.216;2022-07-23T02:04:45;21.83;;;10.93;;
65835;SDS011;52595;51.608;7.216;2022-07-23T02:07:10;16.35;;;10.32;;
65835;SDS011;52595;51.608;7.216;2022-07-23T02:09:36;21.05;;;10.40;;
65835;SDS011;52595;51.608;7.216;2022-07-23T02:12:01;17.70;;;10.43;;
65835;SDS011;52595;51.608;7.216;2022-07-23T02:14:27;18.73;;;10.70;;
65835;SDS011;52595;51.608;7.216;2022-07-23T02:16:53;20.02;;;11.07;;
65835;SDS011;52595;51.608;7.216;2022-07-23T02:19:18;18.40;;;11.13;;
65835;SDS011;52595;51.608;7.216;2022-07-23T02:21:44;19.60;;;11.10;;
65835;SDS011;52595;51.608;7.216;2022-07-23T02:24:09;20.15;;;11.07;;
65835;SDS011;52595;51.608;7.216;2022-07-23T02:26:35;19.77;;;11.30;;
65835;SDS011;52595;51.608;7.216;2022-07-23T02:29:01;15.63;;;10.32;;
65835;SDS011;52595;51.608;7.216;2022-07-23T02:31:28;23.48;;;10.88;;
65835;SDS011;52595;51.608;7.216;2022-07-23T02:33:54;17.05;;;10.85;;
65835;SDS011;52595;51.608;7.216;2022-07-23T02:36:20;18.75;;;11.20;;
65835;SDS011;52595;51.608;7.216;2022-07-23T02:38:46;19.13;;;11.27;;
65835;SDS011;52595;51.608;7.216;2022-07-23T02:41:12;19.15;;;11.25;;
65835;SDS011;52595;51.608;7.216;2022-07-23T02:43:37;20.52;;;12.15;;
65835;SDS011;52595;51.608;7.216;2022-07-23T02:46:02;23.13;;;11.55;;
65835;SDS011;52595;51.608;7.216;2022-07-23T02:48:28;25.83;;;11.95;;
65835;SDS011;52595;51.608;7.216;2022-07-23T02:50:53;20.27;;;11.70;;
65835;SDS011;52595;51.608;7.216;2022-07-23T02:53:21;20.02;;;11.60;;
65835;SDS011;52595;51.608;7.216;2022-07-23T02:55:47;24.27;;;12.30;;
65835;SDS011;52595;51.608;7.216;2022-07-23T02:58:12;20.33;;;11.18;;
65835;SDS011;52595;51.608;7.216;2022-07-23T03:00:38;20.00;;;11.55;;
65835;SDS011;52595;51.608;7.216;2022-07-23T03:03:03;23.33;;;11.57;;
65835;SDS011;52595;51.608;7.216;2022-07-23T03:05:28;22.10;;;12.02;;
65835;SDS011;52595;51.608;7.216;2022-07-23T03:07:54;21.20;;;12.13;;
65835;SDS011;52595;51.608;7.216;2022-07-23T03:10:19;31.58;;;13.27;;
65835;SDS011;52595;51.608;7.216;2022-07-23T03:12:45;23.63;;;12.65;;
65835;SDS011;52595;51.608;7.216;2022-07-23T03:15:10;24.48;;;13.20;;
65835;SDS011;52595;51.608;7.216;2022-07-23T03:17:35;23.92;;;12.38;;
65835;SDS011;52595;51.608;7.216;2022-07-23T03:20:01;24.58;;;12.98;;
65835;SDS011;52595;51.608;7.216;2022-07-23T03:22:26;24.63;;;12.77;;
65835;SDS011;52595;51.608;7.216;2022-07-23T03:24:51;24.85;;;12.93;;
65835;SDS011;52595;51.608;7.216;2022-07-23T03:27:20;29.35;;;12.60;;
65835;SDS011;52595;51.608;7.216;2022-07-23T03:29:51;22.58;;;12.60;;
65835;SDS011;52595;51.608;7.216;2022-07-23T03:32:17;24.40;;;12.80;;
65835;SDS011;52595;51.608;7.216;2022-07-23T03:34:43;28.10;;;12.52;;
65835;SDS011;52595;51.608;7.216;2022-07-23T03:37:08;23.15;;;12.60;;
65835;SDS011;52595;51.608;7.216;2022-07-23T03:39:34;22.67;;;11.73;;
65835;SDS011;52595;51.608;7.216;2022-07-23T03:41:59;24.33;;;11.68;;
65835;SDS011;52595;51.608;7.216;2022-07-23T03:44:25;23.80;;;12.55;;
65835;SDS011;52595;51.608;7.216;2022-07-23T03:46:50;27.63;;;13.55;;
65835;SDS011;52595;51.608;7.216;2022-07-23T03:49:16;22.05;;;12.88;;
65835;SDS011;52595;51.608;7.216;2022-07-23T03:51:41;27.58;;;13.63;;
65835;SDS011;52595;51.608;7.216;2022-07-23T03:54:07;23.75;;;13.13;;
65835;SDS011;52595;51.608;7.216;2022-07-23T03:56:32;22.80;;;13.05;;
65835;SDS011;52595;51.608;7.216;2022-07-23T03:58:58;26.52;;;14.23;;
65835;SDS011;52595;51.608;7.216;2022-07-23T04:01:23;34.83;;;15.02;;
65835;SDS011;52595;51.608;7.216;2022-07-23T04:03:49;31.00;;;14.52;;
65835;SDS011;52595;51.608;7.216;2022-07-23T04:06:14;29.65;;;14.38;;
65835;SDS011;52595;51.608;7.216;2022-07-23T04:08:39;32.72;;;14.75;;
65835;SDS011;52595;51.608;7.216;2022-07-23T04:11:05;30.25;;;15.05;;
65835;SDS011;52595;51.608;7.216;2022-07-23T04:13:30;25.30;;;13.93;;
65835;SDS011;52595;51.608;7.216;2022-07-23T04:15:57;34.45;;;14.65;;
65835;SDS011;52595;51.608;7.216;2022-07-23T04:18:23;30.25;;;14.30;;
65835;SDS011;52595;51.608;7.216;2022-07-23T04:20:50;29.25;;;13.65;;
65835;SDS011;52595;51.608;7.216;2022-07-23T04:23:16;33.85;;;14.57;;
65835;SDS011;52595;51.608;7.216;2022-07-23T04:25:42;31.25;;;15.07;;
65835;SDS011;52595;51.608;7.216;2022-07-23T04:28:07;31.80;;;15.23;;
65835;SDS011;52595;51.608;7.216;2022-07-23T04:30:33;33.17;;;15.60;;
65835;SDS011;52595;51.608;7.216;2022-07-23T04:32:58;32.88;;;15.43;;
65835;SDS011;52595;51.608;7.216;2022-07-23T04:35:24;31.80;;;14.80;;
65835;SDS011;52595;51.608;7.216;2022-07-23T04:37:49;31.10;;;14.85;;
65835;SDS011;52595;51.608;7.216;2022-07-23T04:40:15;29.20;;;15.20;;
65835;SDS011;52595;51.608;7.216;2022-07-23T04:42:40;36.88;;;16.35;;
65835;SDS011;52595;51.608;7.216;2022-07-23T04:45:06;34.17;;;15.30;;
65835;SDS011;52595;51.608;7.216;2022-07-23T04:47:31;29.55;;;14.55;;
65835;SDS011;52595;51.608;7.216;2022-07-23T04:49:57;32.20;;;15.40;;
65835;SDS011;52595;51.608;7.216;2022-07-23T04:52:22;33.83;;;15.23;;
65835;SDS011;52595;51.608;7.216;2022-07-23T04:54:48;34.08;;;15.80;;
65835;SDS011;52595;51.608;7.216;2022-07-23T04:57:14;33.15;;;14.90;;
65835;SDS011;52595;51.608;7.216;2022-07-23T04:59:40;36.13;;;15.57;;
65835;SDS011;52595;51.608;7.216;2022-07-23T05:02:05;33.33;;;15.15;;
65835;SDS011;52595;51.608;7.216;2022-07-23T05:04:31;30.33;;;15.98;;
65835;SDS011;52595;51.608;7.216;2022-07-23T05:06:56;31.80;;;15.25;;
65835;SDS011;52595;51.608;7.216;2022-07-23T05:09:23;36.25;;;15.25;;
65835;SDS011;52595;51.608;7.216;2022-07-23T05:11:48;34.45;;;16.35;;
65835;SDS011;52595;51.608;7.216;2022-07-23T05:14:14;33.30;;;16.00;;
65835;SDS011;52595;51.608;7.216;2022-07-23T05:16:39;32.50;;;16.05;;
65835;SDS011;52595;51.608;7.216;2022-07-23T05:19:05;32.03;;;15.50;;
65835;SDS011;52595;51.608;7.216;2022-07-23T05:21:30;31.73;;;14.57;;
65835;SDS011;52595;51.608;7.216;2022-07-23T05:23:56;30.35;;;15.40;;
65835;SDS011;52595;51.608;7.216;2022-07-23T05:26:21;29.58;;;14.52;;
65835;SDS011;52595;51.608;7.216;2022-07-23T05:28:47;29.27;;;14.68;;
65835;SDS011;52595;51.608;7.216;2022-07-23T05:31:12;30.58;;;15.10;;
65835;SDS011;52595;51.608;7.216;2022-07-23T05:33:38;26.88;;;14.77;;
65835;SDS011;52595;51.608;7.216;2022-07-23T05:36:03;29.75;;;14.60;;
65835;SDS011;52595;51.608;7.216;2022-07-23T05:38:29;28.08;;;14.38;;
65835;SDS011;52595;51.608;7.216;2022-07-23T05:40:55;29.27;;;13.95;;
65835;SDS011;52595;51.608;7.216;2022-07-23T05:43:21;30.15;;;14.95;;
65835;SDS011;52595;51.608;7.216;2022-07-23T05:45:46;24.40;;;13.85;;
65835;SDS011;52595;51.608;7.216;2022-07-23T05:48:11;24.85;;;13.45;;
65835;SDS011;52595;51.608;7.216;2022-07-23T05:50:37;23.63;;;12.90;;
65835;SDS011;52595;51.608;7.216;2022-07-23T05:53:03;27.10;;;12.90;;
65835;SDS011;52595;51.608;7.216;2022-07-23T05:55:29;25.17;;;13.18;;
65835;SDS011;52595;51.608;7.216;2022-07-23T05:57:56;22.58;;;13.00;;
65835;SDS011;52595;51.608;7.216;2022-07-23T06:00:23;24.70;;;13.00;;
65835;SDS011;52595;51.608;7.216;2022-07-23T06:02:49;24.02;;;13.25;;
65835;SDS011;52595;51.608;7.216;2022-07-23T06:05:14;22.42;;;13.27;;
65835;SDS011;52595;51.608;7.216;2022-07-23T06:07:40;24.42;;;13.40;;
65835;SDS011;52595;51.608;7.216;2022-07-23T06:10:05;23.70;;;13.07;;
65835;SDS011;52595;51.608;7.216;2022-07-23T06:12:31;23.45;;;13.35;;
65835;SDS011;52595;51.608;7.216;2022-07-23T06:14:57;25.63;;;13.40;;
65835;SDS011;52595;51.608;7.216;2022-07-23T06:17:22;26.00;;;13.77;;
65835;SDS011;52595;51.608;7.216;2022-07-23T06:19:48;27.23;;;14.50;;
65835;SDS011;52595;51.608;7.216;2022-07-23T06:22:13;24.45;;;14.18;;
65835;SDS011;52595;51.608;7.216;2022-07-23T06:24:38;27.85;;;15.75;;
65835;SDS011;52595;51.608;7.216;2022-07-23T06:27:04;26.92;;;14.65;;
65835;SDS011;52595;51.608;7.216;2022-07-23T06:29:30;29.23;;;14.68;;
65835;SDS011;52595;51.608;7.216;2022-07-23T06:31:55;26.00;;;14.57;;
65835;SDS011;52595;51.608;7.216;2022-07-23T06:34:20;26.98;;;14.70;;
65835;SDS011;52595;51.608;7.216;2022-07-23T06:36:46;24.58;;;14.90;;
65835;SDS011;52595;51.608;7.216;2022-07-23T06:39:11;27.95;;;14.50;;
65835;SDS011;52595;51.608;7.216;2022-07-23T06:41:37;29.73;;;14.32;;
65835;SDS011;52595;51.608;7.216;2022-07-23T06:44:02;23.70;;;13.45;;
65835;SDS011;52595;51.608;7.216;2022-07-23T06:46:28;23.75;;;14.30;;
65835;SDS011;52595;51.608;7.216;2022-07-23T06:48:53;22.20;;;13.18;;
65835;SDS011;52595;51.608;7.216;2022-07-23T06:51:18;23.52;;;13.52;;
65835;SDS011;52595;51.608;7.216;2022-07-23T06:53:44;19.10;;;11.95;;
65835;SDS011;52595;51.608;7.216;2022-07-23T06:56:09;19.20;;;11.50;;
65835;SDS011;52595;51.608;7.216;2022-07-23T06:58:35;16.52;;;11.68;;
65835;SDS011;52595;51.608;7.216;2022-07-23T07:01:00;16.27;;;10.45;;
65835;SDS011;52595;51.608;7.216;2022-07-23T07:03:26;17.02;;;9.68;;
65835;SDS011;52595;51.608;7.216;2022-07-23T07:05:51;16.23;;;9.90;;
65835;SDS011;52595;51.608;7.216;2022-07-23T07:08:18;15.63;;;9.18;;
65835;SDS011;52595;51.608;7.216;2022-07-23T07:10:43;13.88;;;9.20;;
65835;SDS011;52595;51.608;7.216;2022-07-23T07:13:09;14.52;;;8.52;;
65835;SDS011;52595;51.608;7.216;2022-07-23T07:15:34;12.30;;;7.97;;
65835;SDS011;52595;51.608;7.216;2022-07-23T07:18:00;14.40;;;7.97;;
65835;SDS011;52595;51.608;7.216;2022-07-23T07:20:25;12.90;;;7.88;;
65835;SDS011;52595;51.608;7.216;2022-07-23T07:22:50;12.90;;;8.90;;
65835;SDS011;52595;51.608;7.216;2022-07-23T07:25:16;12.75;;;8.75;;
65835;SDS011;52595;51.608;7.216;2022-07-23T07:27:41;10.68;;;7.80;;
65835;SDS011;52595;51.608;7.216;2022-07-23T07:30:09;13.93;;;7.43;;
65835;SDS011;52595;51.608;7.216;2022-07-23T07:32:35;12.20;;;7.18;;
65835;SDS011;52595;51.608;7.216;2022-07-23T07:35:02;11.05;;;7.50;;
65835;SDS011;52595;51.608;7.216;2022-07-23T07:37:29;12.73;;;6.93;;
65835;SDS011;52595;51.608;7.216;2022-07-23T07:39:54;13.00;;;6.30;;
65835;SDS011;52595;51.608;7.216;2022-07-23T07:42:20;11.38;;;6.43;;
65835;SDS011;52595;51.608;7.216;2022-07-23T07:44:45;10.70;;;5.95;;
65835;SDS011;52595;51.608;7.216;2022-07-23T07:47:11;9.20;;;5.60;;
65835;SDS011;52595;51.608;7.216;2022-07-23T07:49:36;7.95;;;5.13;;
65835;SDS011;52595;51.608;7.216;2022-07-23T07:52:02;12.02;;;5.00;;
65835;SDS011;52595;51.608;7.216;2022-07-23T07:54:28;7.75;;;4.97;;
65835;SDS011;52595;51.608;7.216;2022-07-23T07:56:53;7.57;;;5.20;;
65835;SDS011;52595;51.608;7.216;2022-07-23T07:59:18;8.90;;;5.35;;
65835;SDS011;52595;51.608;7.216;2022-07-23T08:01:44;10.57;;;5.80;;
65835;SDS011;52595;51.608;7.216;2022-07-23T08:04:09;9.13;;;5.88;;
65835;SDS011;52595;51.608;7.216;2022-07-23T08:06:35;10.98;;;6.45;;
65835;SDS011;52595;51.608;7.216;2022-07-23T08:09:00;10.60;;;7.63;;
65835;SDS011;52595;51.608;7.216;2022-07-23T08:11:25;13.57;;;10.25;;
65835;SDS011;52595;51.608;7.216;2022-07-23T08:13:51;15.38;;;10.57;;
65835;SDS011;52595;51.608;7.216;2022-07-23T08:16:16;14.63;;;11.20;;
65835;SDS011;52595;51.608;7.216;2022-07-23T08:18:42;13.60;;;9.88;;
65835;SDS011;52595;51.608;7.216;2022-07-23T08:21:07;11.20;;;8.50;;
65835;SDS011;52595;51.608;7.216;2022-07-23T08:23:33;14.73;;;12.00;;
65835;SDS011;52595;51.608;7.216;2022-07-23T08:25:59;10.73;;;9.63;;
65835;SDS011;52595;51.608;7.216;2022-07-23T08:28:26;13.73;;;9.80;;
65835;SDS011;52595;51.608;7.216;2022-07-23T08:30:51;12.07;;;9.40;;
65835;SDS011;52595;51.608;7.216;2022-07-23T08:33:17;12.15;;;8.98;;
65835;SDS011;52595;51.608;7.216;2022-07-23T08:35:47;13.05;;;9.95;;
65835;SDS011;52595;51.608;7.216;2022-07-23T08:38:15;12.57;;;9.48;;
65835;SDS011;52595;51.608;7.216;2022-07-23T08:40:43;11.82;;;8.55;;
65835;SDS011;52595;51.608;7.216;2022-07-23T08:43:12;11.55;;;9.02;;
65835;SDS011;52595;51.608;7.216;2022-07-23T08:45:40;10.20;;;7.85;;
65835;SDS011;52595;51.608;7.216;2022-07-23T08:48:28;11.80;;;9.02;;
65835;SDS011;52595;51.608;7.216;2022-07-23T08:50:56;10.05;;;8.60;;
65835;SDS011;52595;51.608;7.216;2022-07-23T08:53:24;11.80;;;8.85;;
65835;SDS011;52595;51.608;7.216;2022-07-23T08:55:51;12.48;;;8.55;;
65835;SDS011;52595;51.608;7.216;2022-07-23T08:58:19;12.93;;;9.25;;
65835;SDS011;52595;51.608;7.216;2022-07-23T09:00:45;12.73;;;9.05;;
65835;SDS011;52595;51.608;7.216;2022-07-23T09:03:15;10.52;;;9.05;;
65835;SDS011;52595;51.608;7.216;2022-07-23T09:06:00;12.25;;;8.82;;
65835;SDS011;52595;51.608;7.216;2022-07-23T09:08:38;11.25;;;9.48;;
65835;SDS011;52595;51.608;7.216;2022-07-23T09:11:06;13.85;;;9.00;;
65835;SDS011;52595;51.608;7.216;2022-07-23T09:13:39;11.60;;;8.05;;
65835;SDS011;52595;51.608;7.216;2022-07-23T09:18:37;11.10;;;7.57;;
65835;SDS011;52595;51.608;7.216;2022-07-23T09:21:08;8.45;;;7.32;;
65835;SDS011;52595;51.608;7.216;2022-07-23T09:23:42;9.02;;;7.03;;
65835;SDS011;52595;51.608;7.216;2022-07-23T09:26:20;7.57;;;6.10;;
65835;SDS011;52595;51.608;7.216;2022-07-23T09:28:56;8.45;;;5.07;;
65835;SDS011;52595;51.608;7.216;2022-07-23T09:31:30;7.65;;;5.50;;
65835;SDS011;52595;51.608;7.216;2022-07-23T09:34:37;7.53;;;5.47;;
65835;SDS011;52595;51.608;7.216;2022-07-23T09:40:04;7.60;;;4.82;;
65835;SDS011;52595;51.608;7.216;2022-07-23T09:42:34;6.97;;;5.00;;
65835;SDS011;52595;51.608;7.216;2022-07-23T09:44:59;8.30;;;4.65;;
65835;SDS011;52595;51.608;7.216;2022-07-23T09:47:26;8.18;;;4.32;;
65835;SDS011;52595;51.608;7.216;2022-07-23T09:50:03;5.72;;;4.00;;
65835;SDS011;52595;51.608;7.216;2022-07-23T09:52:34;6.43;;;4.22;;
65835;SDS011;52595;51.608;7.216;2022-07-23T09:55:06;5.32;;;4.00;;
65835;SDS011;52595;51.608;7.216;2022-07-23T09:57:32;8.00;;;4.20;;
65835;SDS011;52595;51.608;7.216;2022-07-23T10:00:01;6.97;;;4.05;;
65835;SDS011;52595;51.608;7.216;2022-07-23T10:02:29;5.88;;;3.78;;
65835;SDS011;52595;51.608;7.216;2022-07-23T10:04:57;5.40;;;3.67;;
65835;SDS011;52595;51.608;7.216;2022-07-23T10:07:23;6.20;;;3.90;;
65835;SDS011;52595;51.608;7.216;2022-07-23T10:09:51;5.50;;;3.90;;
65835;SDS011;52595;51.608;7.216;2022-07-23T10:12:18;6.43;;;4.18;;
65835;SDS011;52595;51.608;7.216;2022-07-23T10:14:57;7.10;;;4.75;;
65835;SDS011;52595;51.608;7.216;2022-07-23T10:17:23;6.65;;;4.60;;
65835;SDS011;52595;51.608;7.216;2022-07-23T10:19:49;5.47;;;4.25;;
65835;SDS011;52595;51.608;7.216;2022-07-23T10:22:37;6.55;;;5.03;;
65835;SDS011;52595;51.608;7.216;2022-07-23T10:36:44;7.15;;;4.50;;
65835;SDS011;52595;51.608;7.216;2022-07-23T10:39:24;5.05;;;4.00;;
65835;SDS011;52595;51.608;7.216;2022-07-23T10:41:53;6.35;;;3.70;;
65835;SDS011;52595;51.608;7.216;2022-07-23T10:44:43;6.85;;;4.20;;
65835;SDS011;52595;51.608;7.216;2022-07-23T10:47:11;6.72;;;4.10;;
65835;SDS011;52595;51.608;7.216;2022-07-23T10:49:43;6.75;;;4.15;;
65835;SDS011;52595;51.608;7.216;2022-07-23T10:52:19;7.82;;;3.65;;
65835;SDS011;52595;51.608;7.216;2022-07-23T10:54:51;6.13;;;3.95;;
65835;SDS011;52595;51.608;7.216;2022-07-23T10:57:24;5.25;;;4.00;;
65835;SDS011;52595;51.608;7.216;2022-07-23T11:02:26;7.57;;;3.70;;
65835;SDS011;52595;51.608;7.216;2022-07-23T11:04:54;9.40;;;4.03;;
65835;SDS011;52595;51.608;7.216;2022-07-23T11:07:23;5.72;;;3.50;;
65835;SDS011;52595;51.608;7.216;2022-07-23T11:09:49;5.10;;;3.30;;
65835;SDS011;52595;51.608;7.216;2022-07-23T11:17:30;3.40;;;2.50;;
65835;SDS011;52595;51.608;7.216;2022-07-23T11:22:38;5.30;;;3.25;;
65835;SDS011;52595;51.608;7.216;2022-07-23T11:25:05;6.80;;;2.70;;
65835;SDS011;52595;51.608;7.216;2022-07-23T11:27:40;2.72;;;2.22;;
65835;SDS011;52595;51.608;7.216;2022-07-23T11:30:10;2.80;;;2.05;;
65835;SDS011;52595;51.608;7.216;2022-07-23T11:35:30;4.28;;;1.98;;
65835;SDS011;52595;51.608;7.216;2022-07-23T11:38:06;2.38;;;1.90;;
65835;SDS011;52595;51.608;7.216;2022-07-23T11:40:33;6.30;;;2.15;;
65835;SDS011;52595;51.608;7.216;2022-07-23T11:43:04;3.00;;;1.80;;
65835;SDS011;52595;51.608;7.216;2022-07-23T11:45:35;2.33;;;1.90;;
65835;SDS011;52595;51.608;7.216;2022-07-23T11:48:03;3.67;;;2.30;;
65835;SDS011;52595;51.608;7.216;2022-07-23T11:50:31;4.07;;;2.13;;
65835;SDS011;52595;51.608;7.216;2022-07-23T11:52:57;5.80;;;2.25;;
65835;SDS011;52595;51.608;7.216;2022-07-23T11:55:23;5.18;;;2.17;;
65835;SDS011;52595;51.608;7.216;2022-07-23T11:57:50;2.47;;;2.10;;
65835;SDS011;52595;51.608;7.216;2022-07-23T12:00:19;4.60;;;2.30;;
65835;SDS011;52595;51.608;7.216;2022-07-23T12:02:47;2.40;;;2.00;;
65835;SDS011;52595;51.608;7.216;2022-07-23T12:05:20;3.55;;;2.20;;
65835;SDS011;52595;51.608;7.216;2022-07-23T12:07:54;3.58;;;1.98;;
65835;SDS011;52595;51.608;7.216;2022-07-23T12:12:47;3.03;;;2.30;;
65835;SDS011;52595;51.608;7.216;2022-07-23T12:15:15;5.28;;;2.10;;
65835;SDS011;52595;51.608;7.216;2022-07-23T12:17:43;4.47;;;2.22;;
65835;SDS011;52595;51.608;7.216;2022-07-23T12:20:12;3.58;;;2.40;;
65835;SDS011;52595;51.608;7.216;2022-07-23T12:22:40;4.47;;;2.65;;
65835;SDS011;52595;51.608;7.216;2022-07-23T12:25:09;4.00;;;2.78;;
65835;SDS011;52595;51.608;7.216;2022-07-23T12:27:40;3.97;;;2.28;;
65835;SDS011;52595;51.608;7.216;2022-07-23T12:32:52;3.70;;;2.40;;
65835;SDS011;52595;51.608;7.216;2022-07-23T12:35:20;3.90;;;1.88;;
65835;SDS011;52595;51.608;7.216;2022-07-23T12:37:47;2.97;;;1.98;;
65835;SDS011;52595;51.608;7.216;2022-07-23T12:42:51;2.92;;;1.80;;
65835;SDS011;52595;51.608;7.216;2022-07-23T12:45:28;1.70;;;1.60;;
65835;SDS011;52595;51.608;7.216;2022-07-23T12:50:44;3.83;;;2.00;;
65835;SDS011;52595;51.608;7.216;2022-07-23T12:53:24;3.15;;;1.90;;
65835;SDS011;52595;51.608;7.216;2022-07-23T12:56:02;3.67;;;2.17;;
65835;SDS011;52595;51.608;7.216;2022-07-23T13:01:08;4.50;;;2.10;;
65835;SDS011;52595;51.608;7.216;2022-07-23T13:03:39;2.92;;;1.98;;
65835;SDS011;52595;51.608;7.216;2022-07-23T13:06:07;4.28;;;2.35;;
65835;SDS011;52595;51.608;7.216;2022-07-23T13:08:34;6.18;;;2.42;;
65835;SDS011;52595;51.608;7.216;2022-07-23T13:11:01;4.13;;;2.03;;
65835;SDS011;52595;51.608;7.216;2022-07-23T13:13:28;4.28;;;2.10;;
65835;SDS011;52595;51.608;7.216;2022-07-23T13:15:55;3.90;;;2.20;;
65835;SDS011;52595;51.608;7.216;2022-07-23T13:18:21;4.35;;;2.65;;
65835;SDS011;52595;51.608;7.216;2022-07-23T13:20:47;4.40;;;2.03;;
65835;SDS011;52595;51.608;7.216;2022-07-23T13:23:14;9.13;;;2.20;;
65835;SDS011;52595;51.608;7.216;2022-07-23T13:25:40;2.88;;;2.00;;
65835;SDS011;52595;51.608;7.216;2022-07-23T13:28:06;4.68;;;1.90;;
65835;SDS011;52595;51.608;7.216;2022-07-23T13:30:32;2.45;;;2.05;;
65835;SDS011;52595;51.608;7.216;2022-07-23T13:32:58;6.15;;;2.00;;
65835;SDS011;52595;51.608;7.216;2022-07-23T13:35:23;4.60;;;2.33;;
65835;SDS011;52595;51.608;7.216;2022-07-23T13:37:49;3.85;;;2.10;;
65835;SDS011;52595;51.608;7.216;2022-07-23T13:40:14;3.20;;;2.20;;
65835;SDS011;52595;51.608;7.216;2022-07-23T13:42:40;3.05;;;2.60;;
65835;SDS011;52595;51.608;7.216;2022-07-23T13:45:06;14.65;;;10.85;;
65835;SDS011;52595;51.608;7.216;2022-07-23T13:47:32;3.13;;;2.28;;
65835;SDS011;52595;51.608;7.216;2022-07-23T13:49:58;6.70;;;4.03;;
65835;SDS011;52595;51.608;7.216;2022-07-23T13:52:24;4.75;;;2.80;;
65835;SDS011;52595;51.608;7.216;2022-07-23T13:54:49;3.80;;;2.90;;
65835;SDS011;52595;51.608;7.216;2022-07-23T13:57:15;4.38;;;2.45;;
65835;SDS011;52595;51.608;7.216;2022-07-23T13:59:40;4.75;;;3.03;;
65835;SDS011;52595;51.608;7.216;2022-07-23T14:02:06;6.72;;;2.65;;
65835;SDS011;52595;51.608;7.216;2022-07-23T14:04:32;5.22;;;3.10;;
65835;SDS011;52595;51.608;7.216;2022-07-23T14:06:57;4.82;;;2.15;;
65835;SDS011;52595;51.608;7.216;2022-07-23T14:09:23;3.50;;;2.15;;
65835;SDS011;52595;51.608;7.216;2022-07-23T14:11:48;5.32;;;2.60;;
65835;SDS011;52595;51.608;7.216;2022-07-23T14:14:15;4.95;;;3.10;;
65835;SDS011;52595;51.608;7.216;2022-07-23T14:16:42;6.30;;;3.60;;
65835;SDS011;52595;51.608;7.216;2022-07-23T14:19:07;6.57;;;3.10;;
65835;SDS011;52595;51.608;7.216;2022-07-23T14:21:33;3.47;;;2.40;;
65835;SDS011;52595;51.608;7.216;2022-07-23T14:23:58;4.78;;;2.40;;
65835;SDS011;52595;51.608;7.216;2022-07-23T14:26:24;3.50;;;2.40;;
65835;SDS011;52595;51.608;7.216;2022-07-23T14:28:49;6.43;;;3.28;;
65835;SDS011;52595;51.608;7.216;2022-07-23T14:31:15;3.05;;;2.65;;
65835;SDS011;52595;51.608;7.216;2022-07-23T14:33:40;2.83;;;2.25;;
65835;SDS011;52595;51.608;7.216;2022-07-23T14:36:06;4.00;;;2.35;;
65835;SDS011;52595;51.608;7.216;2022-07-23T14:38:31;3.78;;;2.20;;
65835;SDS011;52595;51.608;7.216;2022-07-23T14:40:57;4.95;;;2.50;;
65835;SDS011;52595;51.608;7.216;2022-07-23T14:43:22;4.13;;;2.17;;
65835;SDS011;52595;51.608;7.216;2022-07-23T14:45:48;5.05;;;2.67;;
65835;SDS011;52595;51.608;7.216;2022-07-23T14:48:13;4.10;;;2.47;;
65835;SDS011;52595;51.608;7.216;2022-07-23T14:50:39;3.78;;;2.50;;
65835;SDS011;52595;51.608;7.216;2022-07-23T14:53:04;4.38;;;2.55;;
65835;SDS011;52595;51.608;7.216;2022-07-23T14:55:30;3.50;;;2.38;;
65835;SDS011;52595;51.608;7.216;2022-07-23T14:57:57;2.30;;;2.10;;
65835;SDS011;52595;51.608;7.216;2022-07-23T15:00:22;4.32;;;2.17;;
65835;SDS011;52595;51.608;7.216;2022-07-23T15:02:48;3.38;;;2.30;;
65835;SDS011;52595;51.608;7.216;2022-07-23T15:05:13;6.22;;;2.42;;
65835;SDS011;52595;51.608;7.216;2022-07-23T15:07:39;6.60;;;2.50;;
65835;SDS011;52595;51.608;7.216;2022-07-23T15:10:04;5.00;;;2.95;;
65835;SDS011;52595;51.608;7.216;2022-07-23T15:12:30;4.35;;;2.42;;
65835;SDS011;52595;51.608;7.216;2022-07-23T15:14:55;5.38;;;2.78;;